Time;durP1;ratioP1;P1;durP2;ratioP2;P2;SDS_P1;SDS_P2;PMS_P1;PMS_P2;Temp;Humidity;BMP_temperature;BMP_pressure;BME280_temperature;BME280_humidity;BME280_pressure;Samples;Min_cycle;Max_cycle;Signal;HPM_P1;HPM_P2
2022/06/03 00:01:11;;;;;;;4.88;2.70;;;15.30;95.90;;;;;;4163934;28;20061;-66
2022/06/03 00:03:20;;;;;;;3.45;2.60;;;15.30;96.10;;;;;;4171793;28;20029;-66
2022/06/03 00:05:36;;;;;;;3.50;2.75;;;15.30;96.20;;;;;;4168491;28;20496;-66
2022/06/03 00:07:49;;;;;;;3.58;2.80;;;15.20;96.20;;;;;;4175714;28;20113;-66
2022/06/03 00:09:49;;;;;;;;;;;15.20;96.30;;;;;;4162608;28;20544;-66
2022/06/03 00:12:15;;;;;;;5.03;2.85;;;15.20;96.50;;;;;;4174824;28;19952;-66
2022/06/03 00:14:53;;;;;;;4.32;2.50;;;15.20;96.40;;;;;;4169618;28;20041;-66
2022/06/03 00:17:15;;;;;;;3.47;2.47;;;15.10;96.40;;;;;;4170609;28;20084;-66
2022/06/03 00:19:27;;;;;;;4.78;2.70;;;15.20;96.50;;;;;;4170702;28;20037;-66
2022/06/03 00:21:37;;;;;;;4.27;3.03;;;15.10;96.80;;;;;;4170346;28;20164;-66
2022/06/03 00:24:13;;;;;;;3.85;2.80;;;15.10;96.60;;;;;;4164802;28;21753;-66
2022/06/03 00:26:41;;;;;;;4.50;2.22;;;15.20;96.70;;;;;;4166694;28;20438;-66
2022/06/03 00:29:07;;;;;;;3.85;2.80;;;15.20;96.80;;;;;;4171962;28;20469;-66
2022/06/03 00:31:20;;;;;;;3.78;2.30;;;15.10;97.10;;;;;;4167750;28;20055;-66
2022/06/03 00:34:06;;;;;;;3.90;2.50;;;15.00;97.20;;;;;;4172005;28;20064;-67
2022/06/03 00:36:22;;;;;;;3.45;2.80;;;15.00;97.20;;;;;;4168084;28;20620;-66
2022/06/03 00:38:38;;;;;;;3.38;2.67;;;15.10;97.40;;;;;;4173944;28;20048;-66
2022/06/03 00:41:03;;;;;;;3.70;2.47;;;15.00;97.60;;;;;;4170988;28;20100;-66
2022/06/03 00:43:22;;;;;;;4.15;2.60;;;15.00;97.90;;;;;;4170376;28;20079;-66
2022/06/03 00:46:00;;;;;;;10.63;3.00;;;14.90;98.10;;;;;;4168843;28;20048;-66
2022/06/03 00:48:34;;;;;;;3.25;2.50;;;14.90;98.30;;;;;;4172909;28;20408;-66
2022/06/03 00:50:50;;;;;;;2.92;2.42;;;14.80;98.50;;;;;;4167669;28;20099;-67
2022/06/03 00:53:00;;;;;;;3.30;2.72;;;14.80;98.40;;;;;;4170190;28;20416;-66
2022/06/03 00:55:12;;;;;;;3.33;2.67;;;14.90;98.40;;;;;;4171215;28;20547;-66
2022/06/03 00:57:32;;;;;;;2.88;2.50;;;14.90;98.30;;;;;;4168816;28;20042;-66
2022/06/03 00:59:58;;;;;;;4.55;2.75;;;14.80;98.20;;;;;;4151591;28;20491;-67
2022/06/03 01:02:19;;;;;;;4.65;2.70;;;14.90;98.50;;;;;;4172132;28;20536;-66
2022/06/03 01:04:26;;;;;;;3.35;2.70;;;15.00;98.30;;;;;;4174537;28;20037;-66
2022/06/03 01:06:54;;;;;;;3.30;2.60;;;15.00;98.20;;;;;;4171770;28;20048;-66
2022/06/03 01:09:29;;;;;;;2.83;2.28;;;15.10;98.00;;;;;;4170715;28;20113;-66
2022/06/03 01:12:00;;;;;;;3.30;2.47;;;15.10;97.90;;;;;;4168236;28;20040;-66
2022/06/03 01:14:15;;;;;;;2.75;2.33;;;15.20;98.20;;;;;;4173693;28;20127;-66
2022/06/03 01:16:52;;;;;;;3.25;2.13;;;15.20;98.20;;;;;;4171941;28;20038;-66
2022/06/03 01:19:19;;;;;;;4.05;2.70;;;15.30;98.40;;;;;;4170462;28;20069;-66
2022/06/03 01:22:00;;;;;;;3.70;2.38;;;15.30;98.20;;;;;;4168115;28;20115;-66
2022/06/03 01:24:12;;;;;;;5.05;2.88;;;15.30;97.90;;;;;;4146627;28;20136;-66
2022/06/03 01:26:43;;;;;;;5.45;2.78;;;15.40;97.90;;;;;;4173010;28;20047;-66
2022/06/03 01:28:55;;;;;;;7.00;2.67;;;15.30;97.90;;;;;;4170380;28;20151;-66
2022/06/03 01:31:23;;;;;;;3.60;2.47;;;15.30;97.90;;;;;;4169035;28;20097;-66
2022/06/03 01:33:30;;;;;;;4.03;2.83;;;15.30;98.00;;;;;;4172919;28;20037;-66
2022/06/03 01:36:09;;;;;;;3.25;2.15;;;15.30;98.20;;;;;;4172149;28;20063;-66
2022/06/03 01:38:15;;;;;;;3.15;2.50;;;15.20;98.50;;;;;;4168552;28;20034;-66
2022/06/03 01:40:26;;;;;;;2.85;2.47;;;15.20;98.60;;;;;;4167821;28;20044;-66
2022/06/03 01:42:56;;;;;;;5.30;2.70;;;15.20;98.70;;;;;;4164004;28;20043;-66
2022/06/03 01:45:32;;;;;;;3.78;2.45;;;15.20;98.70;;;;;;4170983;28;20052;-66
2022/06/03 01:48:06;;;;;;;4.22;2.67;;;15.10;98.80;;;;;;4167533;28;20041;-66
2022/06/03 01:50:27;;;;;;;4.72;2.75;;;15.10;99.00;;;;;;4166526;28;20042;-66
2022/06/03 01:53:09;;;;;;;4.35;2.85;;;15.10;99.20;;;;;;4164036;28;20056;-66
2022/06/03 01:55:52;;;;;;;2.78;2.38;;;15.10;99.10;;;;;;4163430;28;20404;-66
2022/06/03 01:58:11;;;;;;;3.78;2.78;;;15.10;99.00;;;;;;4149374;28;20251;-66
2022/06/03 02:00:24;;;;;;;3.22;2.30;;;15.00;98.90;;;;;;4165611;28;20077;-67
2022/06/03 02:03:02;;;;;;;4.93;2.80;;;15.00;99.00;;;;;;4166808;28;20072;-66
2022/06/03 02:05:25;;;;;;;3.05;2.35;;;15.00;99.10;;;;;;4165463;28;20045;-67
2022/06/03 02:07:45;;;;;;;4.88;3.10;;;14.90;99.40;;;;;;4168278;28;20044;-66
2022/06/03 02:10:20;;;;;;;5.30;2.70;;;14.90;99.20;;;;;;4166142;28;20488;-66
2022/06/03 02:12:51;;;;;;;4.15;3.13;;;15.00;99.20;;;;;;4170162;28;20041;-66
2022/06/03 02:15:11;;;;;;;5.55;3.10;;;15.00;99.30;;;;;;4169148;28;20055;-66
2022/06/03 02:17:18;;;;;;;3.63;2.90;;;14.90;99.20;;;;;;4171929;28;20094;-66
2022/06/03 02:19:46;;;;;;;5.20;3.17;;;14.90;99.20;;;;;;4163535;28;20441;-66
2022/06/03 02:22:24;;;;;;;3.80;3.15;;;14.80;99.30;;;;;;4162879;28;20507;-66
2022/06/03 02:24:48;;;;;;;3.92;2.80;;;14.80;99.40;;;;;;4169653;28;20066;-66
2022/06/03 02:27:10;;;;;;;4.70;2.63;;;14.70;99.60;;;;;;4170444;28;20029;-66
2022/06/03 02:32:07;;;;;;;4.50;3.10;;;14.60;99.90;;;;;;4170546;28;20051;-65
2022/06/03 02:34:16;;;;;;;4.13;2.78;;;14.50;99.90;;;;;;4164855;28;20128;-66
2022/06/03 02:36:54;;;;;;;4.20;3.35;;;14.30;99.90;;;;;;4164390;28;20056;-66
2022/06/03 02:39:27;;;;;;;6.07;3.33;;;14.20;99.90;;;;;;4166106;28;20407;-66
2022/06/03 02:41:43;;;;;;;5.15;3.25;;;14.10;99.90;;;;;;4166706;28;20052;-66
2022/06/03 02:44:09;;;;;;;4.40;3.10;;;13.90;99.90;;;;;;4166628;28;20041;-66
2022/06/03 02:46:12;;;;;;;3.85;2.53;;;13.80;99.90;;;;;;4164543;28;20038;-66
2022/06/03 02:48:54;;;;;;;7.00;3.45;;;13.70;99.90;;;;;;4167844;28;20033;-66
2022/06/03 02:50:58;;;;;;;8.63;3.50;;;13.60;99.90;;;;;;4127897;28;20558;-66
2022/06/03 02:53:31;;;;;;;4.25;3.40;;;13.50;99.90;;;;;;4171449;28;20491;-66
2022/06/03 02:55:40;;;;;;;4.53;3.25;;;13.50;99.90;;;;;;4162613;28;20049;-66
2022/06/03 02:57:41;;;;;;;5.95;4.28;;;13.40;99.90;;;;;;4156079;28;20038;-66
2022/06/03 03:00:17;;;;;;;4.30;3.30;;;13.40;99.90;;;;;;4169084;28;20091;-65
2022/06/03 03:02:40;;;;;;;4.78;3.20;;;13.50;99.90;;;;;;4102407;28;20043;-66
2022/06/03 03:05:12;;;;;;;4.45;3.15;;;13.40;99.90;;;;;;4148182;28;20053;-66
2022/06/03 03:07:42;;;;;;;3.45;2.97;;;13.30;99.90;;;;;;4173626;28;20044;-66
2022/06/03 03:10:16;;;;;;;4.38;3.58;;;13.30;99.90;;;;;;4164020;28;20033;-65
2022/06/03 03:12:54;;;;;;;5.75;3.63;;;13.40;99.90;;;;;;4166985;28;20044;-66
2022/06/03 03:15:15;;;;;;;3.88;3.00;;;13.50;99.90;;;;;;4166785;28;20488;-66
2022/06/03 03:17:48;;;;;;;3.78;3.20;;;13.50;99.90;;;;;;4166731;28;20029;-65
2022/06/03 03:19:58;;;;;;;6.88;3.28;;;13.60;99.90;;;;;;4160677;28;20064;-65
2022/06/03 03:22:51;;;;;;;4.18;3.28;;;13.70;99.90;;;;;;4166494;28;20089;-65
2022/06/03 03:25:08;;;;;;;3.67;2.97;;;13.80;99.90;;;;;;4106202;28;20089;-66
2022/06/03 03:27:18;;;;;;;4.97;3.03;;;13.80;99.90;;;;;;4088045;28;20051;-66
2022/06/03 03:29:55;;;;;;;4.65;3.17;;;13.80;99.90;;;;;;4103098;28;20031;-65
2022/06/03 03:32:33;;;;;;;4.15;3.15;;;13.70;99.90;;;;;;4167638;28;20040;-65
2022/06/03 03:35:11;;;;;;;6.97;3.70;;;13.60;99.90;;;;;;4150393;28;20392;-65
2022/06/03 03:37:17;;;;;;;5.53;3.50;;;13.50;99.90;;;;;;4172659;28;20039;-65
2022/06/03 03:39:36;;;;;;;5.13;3.38;;;13.50;99.90;;;;;;4164382;28;20120;-65
2022/06/03 03:42:02;;;;;;;6.47;3.75;;;13.40;99.90;;;;;;4160715;28;20041;-65
2022/06/03 03:44:24;;;;;;;5.50;3.65;;;13.30;99.90;;;;;;4160649;28;20117;-65
2022/06/03 03:46:45;;;;;;;7.18;4.15;;;13.30;99.90;;;;;;4167372;28;20048;-65
2022/06/03 03:49:27;;;;;;;5.00;3.80;;;13.30;99.90;;;;;;4167941;28;20049;-65
2022/06/03 03:51:45;;;;;;;4.75;3.42;;;13.20;99.90;;;;;;4169479;28;20036;-65
2022/06/03 03:54:05;;;;;;;6.40;3.25;;;13.20;99.90;;;;;;4165938;28;20069;-65
2022/06/03 03:56:29;;;;;;;5.60;3.42;;;13.20;99.90;;;;;;4162652;28;20052;-65
2022/06/03 03:58:51;;;;;;;5.10;3.63;;;13.20;99.90;;;;;;4172631;28;20434;-65
2022/06/03 04:01:16;;;;;;;8.93;4.20;;;13.10;99.90;;;;;;4164828;28;20555;-65
2022/06/03 04:03:41;;;;;;;4.93;3.50;;;13.10;99.90;;;;;;4168899;28;20457;-65
2022/06/03 04:06:25;;;;;;;5.65;3.58;;;13.10;99.90;;;;;;4169517;28;20053;-65
2022/06/03 04:08:36;;;;;;;6.97;3.40;;;13.10;99.90;;;;;;4151182;28;20025;-65
2022/06/03 04:11:10;;;;;;;6.47;3.60;;;13.10;99.90;;;;;;4169542;28;20487;-66
2022/06/03 04:13:14;;;;;;;4.55;3.60;;;13.10;99.90;;;;;;4172503;28;20037;-66
2022/06/03 04:15:49;;;;;;;4.60;3.63;;;13.10;99.90;;;;;;4163085;28;20107;-66
2022/06/03 04:18:12;;;;;;;4.90;3.40;;;13.10;99.90;;;;;;4152603;28;20049;-67
2022/06/03 04:20:25;;;;;;;6.25;3.83;;;13.20;99.90;;;;;;4169740;28;20045;-67
2022/06/03 04:22:59;;;;;;;4.47;3.45;;;13.20;99.90;;;;;;4168702;28;20038;-67
2022/06/03 04:25:12;;;;;;;5.68;3.70;;;13.30;99.90;;;;;;4166371;28;20029;-67
2022/06/03 04:27:43;;;;;;;4.65;3.80;;;13.30;99.90;;;;;;4168470;28;20052;-67
2022/06/03 04:30:19;;;;;;;3.80;3.38;;;13.20;99.90;;;;;;4164060;28;20361;-65
2022/06/03 04:32:50;;;;;;;5.60;3.90;;;13.30;99.90;;;;;;4090631;28;20454;-65
2022/06/03 04:35:21;;;;;;;4.75;3.38;;;13.30;99.90;;;;;;4152421;28;20484;-65
2022/06/03 04:37:42;;;;;;;4.93;3.92;;;13.40;99.90;;;;;;4170491;28;20045;-66
2022/06/03 04:40:47;;;;;;;4.03;3.10;;;13.40;99.90;;;;;;4151626;28;20056;-65
2022/06/03 04:43:09;;;;;;;5.10;3.65;;;13.50;99.90;;;;;;4149185;28;20136;-66
2022/06/03 04:45:38;;;;;;;5.85;4.05;;;13.50;99.90;;;;;;4170607;28;20167;-67
2022/06/03 04:47:54;;;;;;;4.57;3.58;;;13.50;99.90;;;;;;4171649;28;20086;-66
2022/06/03 04:50:32;;;;;;;4.53;3.30;;;13.60;99.90;;;;;;4153718;28;20087;-67
2022/06/03 04:52:57;;;;;;;5.97;4.00;;;13.70;99.90;;;;;;4171517;28;20045;-66
2022/06/03 04:55:15;;;;;;;4.13;3.35;;;13.70;99.90;;;;;;4170236;28;20037;-66
2022/06/03 04:58:09;;;;;;;5.60;4.00;;;13.70;99.90;;;;;;4172014;28;20124;-69
2022/06/03 05:00:58;;;;;;;6.32;3.78;;;13.70;99.90;;;;;;4095001;28;20482;-70
2022/06/03 05:03:28;;;;;;;5.03;3.70;;;13.80;99.90;;;;;;4138295;28;20335;-70
2022/06/03 05:05:49;;;;;;;9.70;4.25;;;13.90;99.90;;;;;;4164906;28;20142;-70
2022/06/03 05:07:55;;;;;;;6.18;3.67;;;14.00;99.90;;;;;;4170599;28;20029;-70
2022/06/03 05:10:08;;;;;;;5.72;3.83;;;14.00;99.90;;;;;;4167658;28;20037;-70
2022/06/03 05:12:16;;;;;;;5.75;3.80;;;14.10;99.90;;;;;;4167605;28;20083;-70
2022/06/03 05:14:31;;;;;;;6.00;3.97;;;14.20;99.90;;;;;;4165791;28;20072;-70
2022/06/03 05:17:01;;;;;;;5.55;4.40;;;14.20;99.90;;;;;;4164722;28;20164;-70
2022/06/03 05:19:02;;;;;;;8.00;4.03;;;14.30;99.90;;;;;;4169085;28;20037;-69
2022/06/03 05:21:22;;;;;;;7.05;4.00;;;14.30;99.90;;;;;;4164913;28;20098;-70
2022/06/03 05:24:03;;;;;;;6.55;4.10;;;14.40;99.90;;;;;;4164265;28;20109;-70
2022/06/03 05:26:37;;;;;;;7.70;4.30;;;14.40;99.90;;;;;;4139006;28;20050;-70
2022/06/03 05:29:05;;;;;;;5.63;4.20;;;14.50;99.90;;;;;;4165342;28;20060;-68
2022/06/03 05:31:23;;;;;;;5.70;3.88;;;14.70;99.90;;;;;;4165027;28;20041;-71
2022/06/03 05:33:47;;;;;;;6.57;4.20;;;14.70;99.90;;;;;;4150079;28;20046;-71
2022/06/03 05:36:20;;;;;;;7.70;3.95;;;14.80;99.90;;;;;;4164723;28;20053;-70
2022/06/03 05:38:40;;;;;;;6.60;4.20;;;14.80;99.90;;;;;;4150397;28;20125;-70
2022/06/03 05:40:48;;;;;;;9.38;4.43;;;14.90;99.90;;;;;;4148771;28;20034;-70
2022/06/03 05:43:17;;;;;;;6.18;3.88;;;15.00;99.90;;;;;;4164830;28;20374;-70
2022/06/03 05:45:40;;;;;;;8.95;4.50;;;15.10;99.90;;;;;;4171208;28;20040;-70
2022/06/03 05:47:44;;;;;;;12.63;4.47;;;15.20;99.90;;;;;;4165886;28;20048;-71
2022/06/03 05:50:22;;;;;;;7.93;3.80;;;15.30;99.90;;;;;;4174961;28;20032;-70
2022/06/03 05:52:43;;;;;;;7.07;4.03;;;15.60;99.90;;;;;;4175554;28;20040;-70
2022/06/03 05:54:53;;;;;;;7.60;3.80;;;16.00;99.90;;;;;;4172502;28;20061;-71
2022/06/03 05:57:16;;;;;;;8.18;4.00;;;16.40;99.90;;;;;;4170818;28;20091;-72
2022/06/03 05:59:28;;;;;;;5.82;3.70;;;16.90;99.90;;;;;;4161568;28;20036;-71
2022/06/03 06:02:13;;;;;;;6.68;3.90;;;17.10;99.90;;;;;;4168618;28;20036;-70
2022/06/03 06:04:51;;;;;;;4.95;3.13;;;17.60;99.90;;;;;;4165126;28;20529;-70
2022/06/03 06:07:09;;;;;;;5.93;3.40;;;18.20;99.90;;;;;;4166310;28;20499;-71
2022/06/03 06:09:47;;;;;;;7.95;3.55;;;18.60;97.20;;;;;;4165163;28;20057;-71
2022/06/03 06:11:57;;;;;;;5.55;3.30;;;18.80;96.10;;;;;;4166162;28;20101;-68
2022/06/03 06:14:25;;;;;;;4.13;2.90;;;19.20;95.90;;;;;;4166205;28;20042;-69
2022/06/03 06:16:46;;;;;;;9.82;3.35;;;19.60;95.80;;;;;;4166767;28;20491;-69
2022/06/03 06:19:05;;;;;;;5.45;3.60;;;20.00;95.10;;;;;;4167021;28;20030;-70
2022/06/03 06:21:24;;;;;;;6.38;3.08;;;20.40;97.00;;;;;;4144266;28;20385;-70
2022/06/03 06:23:50;;;;;;;5.45;2.95;;;20.90;97.50;;;;;;4166819;28;20044;-70
2022/06/03 06:26:12;;;;;;;3.47;2.90;;;21.30;94.10;;;;;;4168271;28;20044;-70
2022/06/03 06:28:21;;;;;;;3.92;2.92;;;21.70;93.80;;;;;;4167608;28;20056;-70
2022/06/03 06:30:49;;;;;;;6.70;3.35;;;22.00;91.30;;;;;;4165514;28;20037;-70
2022/06/03 06:33:02;;;;;;;4.57;3.10;;;22.30;91.30;;;;;;4164854;28;20044;-70
2022/06/03 06:35:08;;;;;;;;;;;22.40;92.30;;;;;;4165728;28;20484;-70
2022/06/03 06:37:34;;;;;;;7.10;3.10;;;22.60;91.90;;;;;;4163696;28;19917;-70
2022/06/03 06:39:47;;;;;;;4.80;3.63;;;22.90;91.70;;;;;;4161861;28;20079;-70
2022/06/03 06:41:51;;;;;;;4.30;3.15;;;22.90;88.40;;;;;;4165654;28;20203;-70
2022/06/03 06:44:13;;;;;;;5.38;3.50;;;23.00;92.40;;;;;;4150646;28;20034;-70
2022/06/03 06:46:30;;;;;;;5.93;3.70;;;23.00;90.00;;;;;;4164149;28;20573;-70
2022/06/03 06:48:33;;;;;;;6.47;3.55;;;23.10;92.30;;;;;;4164269;28;20238;-70
2022/06/03 06:50:50;;;;;;;5.07;3.30;;;23.20;90.90;;;;;;4154505;28;20384;-70
2022/06/03 06:53:00;;;;;;;9.88;3.60;;;23.30;90.90;;;;;;4160373;28;20045;-69
2022/06/03 06:55:01;;;;;;;8.10;3.80;;;23.30;90.90;;;;;;4163286;28;20480;-70
2022/06/03 06:57:35;;;;;;;6.93;3.40;;;23.20;91.70;;;;;;4162912;28;20048;-70
2022/06/03 06:59:39;;;;;;;6.82;4.07;;;23.10;89.90;;;;;;4154838;28;20067;-70
2022/06/03 07:02:03;;;;;;;7.32;3.20;;;23.10;90.80;;;;;;4158506;28;20479;-70
2022/06/03 07:04:16;;;;;;;7.53;3.80;;;23.10;92.90;;;;;;4164678;28;20040;-69
2022/06/03 07:06:27;;;;;;;5.65;3.28;;;23.10;92.80;;;;;;4163915;28;20045;-69
2022/06/03 07:08:40;;;;;;;8.32;3.47;;;23.10;92.40;;;;;;4160377;28;20373;-69
2022/06/03 07:11:00;;;;;;;;;;;23.20;92.40;;;;;;4162240;28;20435;-69
2022/06/03 07:13:23;;;;;;;10.20;3.97;;;23.10;90.30;;;;;;4137724;28;19917;-69
2022/06/03 07:15:27;;;;;;;7.95;3.63;;;23.00;91.00;;;;;;4162067;28;20522;-69
2022/06/03 07:20:11;;;;;;;7.78;4.20;;;23.10;89.90;;;;;;4161633;28;20041;-70
2022/06/03 07:22:28;;;;;;;7.50;3.53;;;23.20;92.20;;;;;;4166467;28;20069;-70
2022/06/03 07:24:47;;;;;;;6.65;3.50;;;23.20;91.20;;;;;;4164933;28;20136;-70
2022/06/03 07:26:54;;;;;;;7.57;3.17;;;23.30;91.30;;;;;;4162703;28;20033;-69
2022/06/03 07:29:00;;;;;;;5.00;3.20;;;23.30;90.90;;;;;;4163420;28;20037;-69
2022/06/03 07:31:24;;;;;;;7.68;3.58;;;23.40;90.70;;;;;;4149564;28;20038;-69
2022/06/03 07:33:31;;;;;;;6.30;3.13;;;23.30;86.30;;;;;;4166313;28;20247;-70
2022/06/03 07:35:56;;;;;;;7.43;3.17;;;23.30;90.80;;;;;;4167901;28;20049;-69
2022/06/03 07:38:15;;;;;;;5.75;3.00;;;23.40;90.80;;;;;;4162200;28;20068;-69
2022/06/03 07:40:44;;;;;;;6.55;2.58;;;23.40;91.60;;;;;;4161443;28;20362;-69
2022/06/03 07:43:09;;;;;;;5.63;2.70;;;23.50;91.00;;;;;;4161030;28;25364;-68
2022/06/03 07:45:36;;;;;;;4.60;2.63;;;23.50;90.70;;;;;;4165451;28;20042;-69
2022/06/03 07:47:37;;;;;;;4.45;2.72;;;23.60;90.20;;;;;;4167694;28;20040;-69
2022/06/03 07:49:39;;;;;;;6.03;2.85;;;23.60;91.00;;;;;;4165009;28;20650;-69
2022/06/03 07:51:45;;;;;;;4.35;2.67;;;23.60;91.00;;;;;;4165223;28;20111;-69
2022/06/03 07:54:05;;;;;;;5.03;2.50;;;23.80;91.70;;;;;;4148298;28;20418;-68
2022/06/03 07:56:06;;;;;;;4.30;2.50;;;23.80;86.70;;;;;;4165100;28;20036;-68
2022/06/03 07:58:09;;;;;;;6.10;2.80;;;23.60;85.90;;;;;;4166326;28;20053;-69
2022/06/03 08:00:18;;;;;;;4.05;2.80;;;23.30;85.70;;;;;;4163578;28;20638;-69
2022/06/03 08:02:21;;;;;;;5.13;2.40;;;23.30;90.70;;;;;;4166930;28;20247;-69
2022/06/03 08:04:36;;;;;;;3.50;2.30;;;23.50;90.80;;;;;;4158339;28;20041;-69
2022/06/03 08:11:17;;;;;;;4.22;2.33;;;23.70;88.00;;;;;;4167594;28;20412;-69
2022/06/03 08:13:18;;;;;;;3.30;2.10;;;23.70;90.70;;;;;;4168435;28;20048;-69
2022/06/03 08:15:23;;;;;;;4.95;2.50;;;23.80;90.70;;;;;;4165661;28;20053;-69
2022/06/03 08:17:25;;;;;;;5.90;2.83;;;23.80;88.20;;;;;;4167445;28;20046;-68
2022/06/03 08:19:28;;;;;;;4.30;2.35;;;23.70;86.50;;;;;;4168610;28;20041;-69
2022/06/03 08:21:42;;;;;;;5.10;2.83;;;23.60;84.80;;;;;;4173482;28;20171;-69
2022/06/03 08:23:44;;;;;;;7.50;3.00;;;23.40;85.00;;;;;;4165509;28;20044;-68
2022/06/03 08:25:49;;;;;;;4.63;2.70;;;23.30;85.30;;;;;;4168366;28;20468;-68
2022/06/03 08:27:51;;;;;;;5.97;2.75;;;23.40;90.00;;;;;;4167579;28;20076;-68
2022/06/03 08:30:05;;;;;;;6.75;2.67;;;23.50;85.40;;;;;;4166133;28;20057;-68
2022/06/03 08:32:13;;;;;;;6.45;3.08;;;23.50;89.30;;;;;;4167226;28;20057;-68
2022/06/03 08:34:28;;;;;;;7.35;3.13;;;23.60;91.00;;;;;;4169657;28;20470;-68
2022/06/03 08:36:33;;;;;;;7.68;2.83;;;23.70;90.20;;;;;;4167721;28;20423;-68
2022/06/03 08:38:42;;;;;;;7.53;2.92;;;23.80;89.90;;;;;;4170244;28;20124;-68
2022/06/03 08:40:56;;;;;;;3.30;2.42;;;23.80;89.90;;;;;;4166113;28;20060;-68
2022/06/03 08:43:22;;;;;;;4.68;2.72;;;23.90;90.50;;;;;;4164175;28;20112;-69
2022/06/03 08:46:02;;;;;;;5.22;3.10;;;24.00;89.70;;;;;;4163181;28;20052;-68
2022/06/03 08:48:13;;;;;;;7.43;2.80;;;24.00;85.00;;;;;;4166538;28;20032;-68
2022/06/03 08:50:44;;;;;;;5.63;2.50;;;24.20;88.00;;;;;;4167539;28;20117;-68
2022/06/03 08:52:45;;;;;;;3.72;2.33;;;24.30;89.10;;;;;;4169197;28;20132;-67
2022/06/03 08:54:51;;;;;;;3.45;2.38;;;24.40;89.50;;;;;;4170245;28;20190;-68
2022/06/03 08:57:00;;;;;;;3.35;2.05;;;24.60;88.30;;;;;;4147020;28;20034;-67
2022/06/03 08:59:14;;;;;;;3.75;1.85;;;24.50;85.30;;;;;;4150050;28;20036;-68
2022/06/03 09:01:22;;;;;;;3.25;2.00;;;24.60;81.90;;;;;;4167213;28;20043;-68
2022/06/03 09:03:27;;;;;;;8.63;2.38;;;24.70;82.70;;;;;;4170067;28;20440;-68
2022/06/03 09:05:59;;;;;;;5.53;1.80;;;24.70;82.70;;;;;;4149349;28;20052;-68
2022/06/03 09:08:12;;;;;;;6.03;2.40;;;24.70;80.30;;;;;;4167689;28;20117;-68
2022/06/03 09:10:21;;;;;;;5.32;2.30;;;24.50;78.00;;;;;;4163317;28;20630;-68
2022/06/03 09:12:28;;;;;;;2.65;1.98;;;24.50;83.70;;;;;;4162901;28;20332;-68
2022/06/03 09:14:30;;;;;;;4.53;2.13;;;24.60;80.70;;;;;;4157076;28;20060;-68
2022/06/03 09:16:33;;;;;;;2.70;1.80;;;24.50;78.70;;;;;;4168311;28;20392;-68
2022/06/03 09:18:39;;;;;;;4.32;2.05;;;24.60;82.80;;;;;;4166717;28;20499;-69
2022/06/03 09:20:44;;;;;;;5.50;1.67;;;24.60;78.70;;;;;;4164202;28;20037;-69
2022/06/03 09:22:47;;;;;;;3.97;2.42;;;24.70;85.50;;;;;;4168169;28;20563;-69
2022/06/03 09:24:48;;;;;;;3.90;2.33;;;24.70;79.20;;;;;;4165495;28;20462;-68
2022/06/03 09:26:54;;;;;;;7.72;2.50;;;24.70;80.30;;;;;;4168374;28;20167;-68
2022/06/03 09:28:57;;;;;;;4.05;2.40;;;24.60;77.30;;;;;;4169477;28;20036;-68
2022/06/03 09:31:01;;;;;;;8.20;2.30;;;24.50;77.70;;;;;;4168166;28;20439;-69
2022/06/03 09:33:05;;;;;;;4.88;2.53;;;24.30;76.80;;;;;;4166588;28;20496;-69
2022/06/03 09:35:11;;;;;;;3.42;2.35;;;24.40;77.90;;;;;;4166469;28;20053;-69
2022/06/03 09:37:20;;;;;;;4.47;2.17;;;24.40;76.90;;;;;;4170629;28;20545;-68
2022/06/03 09:39:21;;;;;;;3.17;2.13;;;24.50;85.00;;;;;;4166964;28;20040;-68
2022/06/03 09:41:26;;;;;;;3.30;2.30;;;24.60;78.90;;;;;;4165327;28;20068;-68
2022/06/03 09:43:36;;;;;;;3.03;2.15;;;24.60;76.30;;;;;;4164360;28;20034;-69
2022/06/03 09:45:37;;;;;;;3.47;2.15;;;24.50;75.40;;;;;;4168338;28;20052;-69
2022/06/03 09:47:38;;;;;;;3.28;1.70;;;24.50;77.50;;;;;;4168448;28;20029;-69
2022/06/03 09:49:38;;;;;;;3.97;1.70;;;24.60;78.60;;;;;;4169775;28;20033;-69
2022/06/03 09:51:56;;;;;;;2.33;1.40;;;24.70;77.40;;;;;;4164236;28;20050;-70
2022/06/03 09:53:57;;;;;;;2.75;1.60;;;24.70;77.10;;;;;;4166027;28;20139;-69
2022/06/03 09:56:02;;;;;;;4.13;1.67;;;24.90;76.70;;;;;;4166882;28;20064;-69
2022/06/03 09:58:05;;;;;;;2.25;1.42;;;24.70;74.20;;;;;;4168056;28;20029;-69
2022/06/03 10:00:21;;;;;;;2.00;1.42;;;24.70;75.30;;;;;;4165893;28;20036;-69
2022/06/03 10:02:21;;;;;;;2.67;1.58;;;24.70;74.70;;;;;;4167534;28;20075;-68
2022/06/03 10:04:24;;;;;;;1.48;1.20;;;24.70;74.00;;;;;;4165116;28;20045;-68
2022/06/03 10:06:43;;;;;;;1.33;1.23;;;24.80;75.20;;;;;;4165736;28;20128;-68
2022/06/03 10:13:24;;;;;;;2.75;1.30;;;24.90;72.60;;;;;;4167731;28;20374;-69
2022/06/03 10:15:43;;;;;;;3.08;1.30;;;24.90;68.30;;;;;;4165298;28;20118;-68
2022/06/03 10:17:49;;;;;;;5.35;1.52;;;24.90;68.90;;;;;;4165538;28;20045;-69
2022/06/03 10:19:51;;;;;;;0.95;0.85;;;24.80;66.20;;;;;;4166053;28;20052;-69
2022/06/03 10:21:56;;;;;;;1.13;0.70;;;24.80;66.70;;;;;;4159934;28;20901;-69
2022/06/03 10:24:00;;;;;;;3.13;1.30;;;24.80;66.00;;;;;;4166555;28;20036;-69
2022/06/03 10:26:02;;;;;;;0.77;0.68;;;24.80;65.70;;;;;;4148064;28;20503;-69
2022/06/03 10:28:08;;;;;;;1.92;1.25;;;24.70;66.00;;;;;;4166668;28;20144;-68
2022/06/03 10:30:09;;;;;;;0.90;0.80;;;24.70;64.20;;;;;;4166108;28;20075;-68
2022/06/03 10:32:10;;;;;;;2.95;1.15;;;24.80;65.80;;;;;;4165636;28;20454;-70
2022/06/03 10:34:15;;;;;;;1.63;0.90;;;24.90;66.20;;;;;;4166119;28;20033;-70
2022/06/03 10:36:16;;;;;;;2.38;0.82;;;24.90;67.00;;;;;;4167495;28;20075;-70
2022/06/03 10:38:20;;;;;;;0.73;0.70;;;24.90;64.40;;;;;;4164114;28;20107;-69
2022/06/03 10:40:24;;;;;;;1.30;0.90;;;25.00;64.60;;;;;;4166466;28;20087;-69
2022/06/03 10:42:25;;;;;;;1.08;0.88;;;25.10;67.00;;;;;;4169043;28;20042;-69
2022/06/03 10:44:33;;;;;;;1.08;0.80;;;25.10;65.70;;;;;;4167078;28;20045;-69
2022/06/03 10:46:34;;;;;;;2.35;1.05;;;25.10;65.40;;;;;;4162254;28;20120;-70
2022/06/03 10:48:35;;;;;;;1.42;0.90;;;25.00;63.20;;;;;;4163573;28;20053;-69
2022/06/03 10:50:38;;;;;;;1.55;0.82;;;25.10;64.90;;;;;;4166122;28;20034;-69
2022/06/03 11:02:05;;;;;;;1.52;1.10;;;25.30;66.60;;;;;;4167546;28;20044;-69
2022/06/03 11:04:05;;;;;;;2.33;1.30;;;25.40;64.50;;;;;;4166639;28;20033;-69
2022/06/03 11:06:08;;;;;;;1.27;0.90;;;25.30;65.30;;;;;;4150688;28;20049;-69
2022/06/03 11:08:10;;;;;;;1.42;0.95;;;25.40;63.20;;;;;;4166405;28;20495;-69
2022/06/03 11:10:14;;;;;;;1.45;0.90;;;25.50;64.40;;;;;;4167851;28;20044;-70
2022/06/03 11:12:26;;;;;;;3.05;1.33;;;25.50;64.50;;;;;;4168619;28;20826;-69
2022/06/03 11:14:36;;;;;;;3.70;1.23;;;25.60;67.10;;;;;;4167034;28;20516;-69
2022/06/03 11:16:38;;;;;;;4.78;1.30;;;25.70;65.20;;;;;;4163318;28;20063;-70
2022/06/03 11:18:38;;;;;;;3.35;1.40;;;25.50;63.60;;;;;;4148024;28;20493;-70
2022/06/03 11:20:40;;;;;;;2.63;1.33;;;25.40;63.70;;;;;;4168000;28;20099;-69
2022/06/03 11:22:43;;;;;;;1.90;1.13;;;25.50;64.30;;;;;;4165241;28;20043;-70
2022/06/03 11:24:54;;;;;;;1.85;1.17;;;25.40;61.80;;;;;;4164183;28;20049;-69
2022/06/03 11:26:55;;;;;;;2.47;1.20;;;25.40;62.00;;;;;;4166242;28;20053;-69
2022/06/03 11:29:06;;;;;;;1.63;1.20;;;25.50;62.10;;;;;;4165168;28;20059;-69
2022/06/03 11:31:32;;;;;;;1.50;1.20;;;25.50;62.10;;;;;;4163739;28;20038;-69
2022/06/03 11:33:36;;;;;;;1.95;1.05;;;25.40;65.30;;;;;;4164857;28;20515;-69
2022/06/03 11:35:44;;;;;;;1.98;1.23;;;25.40;64.30;;;;;;4147237;28;20448;-69
2022/06/03 11:37:52;;;;;;;2.40;1.60;;;25.40;62.60;;;;;;4166329;28;20257;-69
2022/06/03 11:39:59;;;;;;;3.45;1.20;;;25.40;62.40;;;;;;4166822;28;20171;-69
2022/06/03 11:42:09;;;;;;;2.75;1.50;;;25.40;62.30;;;;;;4163020;28;20041;-69
2022/06/03 11:44:25;;;;;;;1.92;0.98;;;25.50;63.80;;;;;;4169072;28;20037;-69
2022/06/03 11:46:34;;;;;;;2.17;1.00;;;25.40;61.20;;;;;;4167936;28;20048;-69
2022/06/03 11:48:39;;;;;;;1.50;1.17;;;25.40;61.40;;;;;;4170351;28;20033;-69
2022/06/03 11:50:40;;;;;;;5.78;1.42;;;25.30;62.10;;;;;;4171116;28;20041;-69
2022/06/03 11:52:40;;;;;;;3.53;1.13;;;25.30;62.00;;;;;;4168052;28;20096;-71
2022/06/03 11:54:41;;;;;;;1.52;1.08;;;25.30;62.10;;;;;;4163940;28;20051;-70
2022/06/03 11:56:45;;;;;;;1.77;0.93;;;25.30;61.50;;;;;;4170676;28;20068;-70
2022/06/03 11:59:01;;;;;;;1.77;0.70;;;25.30;62.60;;;;;;4168084;28;20029;-69
2022/06/03 12:01:11;;;;;;;0.80;0.80;;;25.30;62.70;;;;;;4167038;28;20033;-69
2022/06/03 12:03:37;;;;;;;1.35;0.85;;;25.40;64.50;;;;;;4164390;28;20033;-70
2022/06/03 12:05:47;;;;;;;1.60;0.82;;;25.40;64.00;;;;;;4167061;28;20085;-69
2022/06/03 12:08:17;;;;;;;3.25;0.93;;;25.50;66.60;;;;;;4169705;28;20037;-69
2022/06/03 12:10:35;;;;;;;2.70;1.50;;;25.40;67.10;;;;;;4169862;28;20680;-69
2022/06/03 12:15:30;;;;;;;4.82;1.20;;;25.60;70.70;;;;;;4170889;28;20049;-70
2022/06/03 12:17:33;;;;;;;2.33;1.20;;;25.50;68.40;;;;;;4168438;28;20041;-70
2022/06/03 12:19:43;;;;;;;2.13;1.10;;;25.50;66.20;;;;;;4170209;28;20396;-70